Time;durP1;ratioP1;P1;durP2;ratioP2;P2;SDS_P1;SDS_P2;PMS_P1;PMS_P2;Temp;Humidity;BMP_temperature;BMP_pressure;BME280_temperature;BME280_humidity;BME280_pressure;Samples;Min_cycle;Max_cycle;Signal;HPM_P1;HPM_P2
2023/04/21 00:01:18;;;;;;;;;19.00;18.75;;;;;-147.17;100.00;-6490.94;5030936;28;52248;-56
2023/04/21 00:03:43;;;;;;;;;22.50;21.50;;;;;-147.17;100.00;-6739.25;5000380;28;51055;-56
2023/04/21 00:06:09;;;;;;;;;26.50;24.00;;;;;-147.17;100.00;-6987.56;5015985;28;51602;-56
2023/04/21 00:08:41;;;;;;;;;21.00;19.25;;;;;-147.17;100.00;-7235.84;5028949;28;51125;-56
2023/04/21 00:11:06;;;;;;;;;26.00;22.25;;;;;-147.17;100.00;-6242.59;5034310;28;52020;-56
2023/04/21 00:13:33;;;;;;;;;24.00;22.00;;;;;-147.17;100.00;-6987.56;5021160;28;51052;-55
2023/04/21 00:15:58;;;;;;;;;28.00;25.75;;;;;-147.17;100.00;-7484.09;5020431;28;51193;-55
2023/04/21 00:18:24;;;;;;;;;22.00;21.25;;;;;-147.17;100.00;-7980.59;5020715;28;50918;-57
2023/04/21 00:20:49;;;;;;;;;27.75;22.75;;;;;-147.17;100.00;-8228.81;5003507;28;51640;-57
2023/04/21 00:23:15;;;;;;;;;25.00;21.25;;;;;-147.17;100.00;-7484.09;5020310;28;51261;-55
2023/04/21 00:25:40;;;;;;;;;24.25;22.00;;;;;-147.17;100.00;-7980.59;5023656;28;51642;-56
2023/04/21 00:28:05;;;;;;;;;22.25;19.00;;;;;-147.17;100.00;-8477.03;5020588;28;51104;-57
2023/04/21 00:30:31;;;;;;;;;23.50;22.75;;;;;-147.17;100.00;-8725.22;5014326;28;52398;-59
2023/04/21 00:32:56;;;;;;;;;26.50;24.75;;;;;-147.17;100.00;-8725.22;5020212;28;51136;-54
2023/04/21 00:35:22;;;;;;;;;24.00;20.50;;;;;-147.17;100.00;-9469.69;5031467;28;51108;-58
2023/04/21 00:37:48;;;;;;;;;27.75;21.50;;;;;-147.17;100.00;-9469.69;5023924;28;51887;-54
2023/04/21 00:40:14;;;;;;;;;21.00;21.00;;;;;-147.17;100.00;-9221.53;5024626;28;51344;-56
2023/04/21 00:42:40;;;;;;;;;22.50;20.75;;;;;-147.17;100.00;-9717.81;5023364;28;51108;-56
2023/04/21 00:45:05;;;;;;;;;22.00;20.50;;;;;-147.17;100.00;-10214.00;5034502;28;51081;-58
2023/04/21 00:47:31;;;;;;;;;24.75;22.75;;;;;-147.17;100.00;-10462.09;5025807;28;51396;-57
2023/04/21 00:49:57;;;;;;;;;24.25;22.75;;;;;-147.17;100.00;-10462.09;5014999;28;51922;-55
2023/04/21 00:52:23;;;;;;;;;20.75;19.25;;;;;-147.17;100.00;-10958.19;5004290;28;51022;-55
2023/04/21 00:54:49;;;;;;;;;25.25;20.50;;;;;-147.17;100.00;-11454.25;5031971;28;51035;-56
2023/04/21 00:57:15;;;;;;;;;25.50;20.75;;;;;-147.17;100.00;-11702.25;5026696;28;51253;-57
2023/04/21 00:59:40;;;;;;;;;22.75;22.25;;;;;-147.17;100.00;-12694.06;5019884;28;52023;-56
2023/04/21 01:02:06;;;;;;;;;27.00;25.00;;;;;-147.17;100.00;-12694.06;5029598;28;51128;-57
2023/04/21 01:04:35;;;;;;;;;29.25;27.00;;;;;-147.17;100.00;-12694.06;5030342;28;51171;-55
2023/04/21 01:07:06;;;;;;;;;21.25;16.25;;;;;-147.17;100.00;-12446.13;5027760;28;53093;-56
2023/04/21 01:09:33;;;;;;;;;19.25;19.00;;;;;-147.17;100.00;-12446.13;5012911;28;52091;-58
2023/04/21 01:12:09;;;;;;;;;28.00;25.25;;;;;-147.17;100.00;-12694.06;5025044;28;51434;-55
2023/04/21 01:14:36;;;;;;;;;24.50;22.50;;;;;-147.17;100.00;-12941.97;5024337;28;51036;-58
2023/04/21 01:17:06;;;;;;;;;24.75;23.75;;;;;-147.17;100.00;-13189.88;5028863;28;51193;-57
2023/04/21 01:19:38;;;;;;;;;25.75;24.00;;;;;-147.17;100.00;-13189.88;5032607;28;51202;-57
2023/04/21 01:22:03;;;;;;;;;26.25;25.75;;;;;-147.17;100.00;-13685.63;5023365;28;51161;-57
2023/04/21 01:24:58;;;;;;;;;26.00;24.00;;;;;-147.17;100.00;-14181.31;5010174;28;51305;-58
2023/04/21 01:27:25;;;;;;;;;23.75;23.75;;;;;-147.17;100.00;-14181.31;5020859;28;51270;-57
2023/04/21 01:29:51;;;;;;;;;26.00;24.75;;;;;-147.17;100.00;-14181.31;5008677;28;51309;-57
2023/04/21 01:32:22;;;;;;;;;24.75;23.00;;;;;-147.17;100.00;-13933.50;5029086;28;51079;-56
2023/04/21 01:34:48;;;;;;;;;24.00;23.75;;;;;-147.17;100.00;-13933.50;5021337;28;50918;-58
2023/04/21 01:37:18;;;;;;;;;26.25;25.00;;;;;-147.17;100.00;-14181.31;5004459;28;51039;-58
2023/04/21 01:39:46;;;;;;;;;26.75;24.25;;;;;-147.17;100.00;-14429.16;5016168;28;51865;-58
2023/04/21 01:42:12;;;;;;;;;26.00;25.00;;;;;-147.17;100.00;-14181.31;5022516;28;51077;-57
2023/04/21 01:44:38;;;;;;;;;19.50;19.00;;;;;-147.17;100.00;-14181.31;5028244;28;50993;-56
2023/04/21 01:47:05;;;;;;;;;30.00;24.75;;;;;-147.17;100.00;-13933.50;5024681;28;51188;-57
2023/04/21 01:49:31;;;;;;;;;21.50;21.50;;;;;-147.17;100.00;-13933.50;5025052;28;53397;-58
2023/04/21 01:51:56;;;;;;;;;29.25;24.25;;;;;-147.17;100.00;-13933.50;5006178;28;51316;-58
2023/04/21 01:54:21;;;;;;;;;27.00;22.25;;;;;-147.17;100.00;-13685.63;5010443;28;51261;-58
2023/04/21 01:56:47;;;;;;;;;31.75;28.50;;;;;-147.17;100.00;-13685.63;5023502;28;51093;-57
2023/04/21 01:59:12;;;;;;;;;26.50;25.50;;;;;-147.17;100.00;-13685.63;5023928;28;51949;-57
2023/04/21 02:01:37;;;;;;;;;22.25;22.00;;;;;-147.17;100.00;-13685.63;5018898;28;51092;-55
2023/04/21 02:04:03;;;;;;;;;31.50;26.75;;;;;-147.17;100.00;-13685.63;5016683;28;51142;-56
2023/04/21 02:06:30;;;;;;;;;25.50;23.75;;;;;-147.17;100.00;-13685.63;5008647;28;51463;-56
2023/04/21 02:08:57;;;;;;;;;27.00;24.50;;;;;-147.17;100.00;-13437.75;5027713;28;52061;-56
2023/04/21 02:11:25;;;;;;;;;24.25;22.25;;;;;-147.17;100.00;-13685.63;5028116;28;51215;-54
2023/04/21 02:13:54;;;;;;;;;26.25;23.00;;;;;-147.17;100.00;-13685.63;5028773;28;51175;-56
2023/04/21 02:16:19;;;;;;;;;28.75;24.75;;;;;-147.17;100.00;-13189.88;5022235;28;51394;-54
2023/04/21 02:18:46;;;;;;;;;25.00;22.75;;;;;-147.17;100.00;-13437.75;5023745;28;52169;-54
2023/04/21 02:21:11;;;;;;;;;28.25;25.50;;;;;-147.17;100.00;-13685.63;5012404;28;51488;-55
2023/04/21 02:23:37;;;;;;;;;23.25;19.75;;;;;-147.17;100.00;-13685.63;5017712;28;51327;-56
2023/04/21 02:26:02;;;;;;;;;26.75;24.00;;;;;-147.17;100.00;-13933.50;5022167;28;51220;-56
2023/04/21 02:28:27;;;;;;;;;25.25;22.25;;;;;-147.17;100.00;-13933.50;4982274;28;51111;-55
2023/04/21 02:30:53;;;;;;;;;28.75;26.25;;;;;-147.17;100.00;-13933.50;5022225;28;51370;-57
2023/04/21 02:33:18;;;;;;;;;30.00;24.00;;;;;-147.17;100.00;-13933.50;5017667;28;51328;-56
2023/04/21 02:35:43;;;;;;;;;31.00;28.00;;;;;-147.17;100.00;-13933.50;5013042;28;51267;-57
2023/04/21 02:38:10;;;;;;;;;27.00;25.50;;;;;-147.17;100.00;-14181.31;5024236;28;51919;-57
2023/04/21 02:40:35;;;;;;;;;29.75;26.75;;;;;-147.17;100.00;-14181.31;5013419;28;50890;-57
2023/04/21 02:43:01;;;;;;;;;17.75;16.25;;;;;-147.17;100.00;-13933.50;5028590;28;51181;-58
2023/04/21 02:45:27;;;;;;;;;27.00;25.25;;;;;-147.17;100.00;-13933.50;5026717;28;51157;-55
2023/04/21 02:47:52;;;;;;;;;28.50;27.25;;;;;-147.17;100.00;-13933.50;5023723;28;58424;-58
2023/04/21 02:50:17;;;;;;;;;25.75;24.75;;;;;-147.17;100.00;-13933.50;4993890;28;51134;-57
2023/04/21 02:52:43;;;;;;;;;26.00;25.25;;;;;-147.17;100.00;-13933.50;5021632;28;51423;-56
2023/04/21 02:55:08;;;;;;;;;28.75;26.75;;;;;-147.17;100.00;-13933.50;5013727;28;51361;-55
2023/04/21 02:57:33;;;;;;;;;21.75;21.50;;;;;-147.17;100.00;-13685.63;5013027;28;51199;-57
2023/04/21 02:59:59;;;;;;;;;28.50;26.50;;;;;-147.17;100.00;-13685.63;5030785;28;50974;-58
2023/04/21 03:02:25;;;;;;;;;26.50;24.25;;;;;-147.17;100.00;-13437.75;5016259;28;50962;-58
2023/04/21 03:04:50;;;;;;;;;24.75;23.00;;;;;-147.17;100.00;-13437.75;5018166;28;51134;-57
2023/04/21 03:07:16;;;;;;;;;27.00;23.50;;;;;-147.17;100.00;-13685.63;5020851;28;52340;-57
2023/04/21 03:09:41;;;;;;;;;23.75;22.75;;;;;-147.17;100.00;-13437.75;5021717;28;51053;-56
2023/04/21 03:12:07;;;;;;;;;27.25;25.50;;;;;-147.17;100.00;-13437.75;5031482;28;51330;-58
2023/04/21 03:14:32;;;;;;;;;20.25;19.00;;;;;-147.17;100.00;-13437.75;5032904;28;50898;-56
2023/04/21 03:16:57;;;;;;;;;21.00;20.50;;;;;-147.17;100.00;-13685.63;5031754;28;51092;-57
2023/04/21 03:19:23;;;;;;;;;27.75;23.50;;;;;-147.17;100.00;-13437.75;5019762;28;51095;-57
2023/04/21 03:21:48;;;;;;;;;25.50;23.00;;;;;-147.17;100.00;-13685.63;5005540;28;51697;-57
2023/04/21 03:24:14;;;;;;;;;23.75;19.50;;;;;-147.17;100.00;-14181.31;5015165;28;51261;-56
2023/04/21 03:26:39;;;;;;;;;27.25;24.00;;;;;-147.17;100.00;-14181.31;4997461;28;53901;-58
2023/04/21 03:29:05;;;;;;;;;23.00;20.75;;;;;-147.17;100.00;-14429.16;5019954;28;52005;-56
2023/04/21 03:31:31;;;;;;;;;26.75;23.75;;;;;-147.17;100.00;-14676.94;5004808;28;51881;-56
2023/04/21 03:33:56;;;;;;;;;20.25;20.25;;;;;-147.17;100.00;-14676.94;5009951;28;51227;-57
2023/04/21 03:36:21;;;;;;;;;23.50;23.00;;;;;-147.17;100.00;-14676.94;5009219;28;51211;-57
2023/04/21 03:38:47;;;;;;;;;21.00;19.50;;;;;-147.17;100.00;-14924.75;5008092;28;51301;-57
2023/04/21 03:41:12;;;;;;;;;22.00;20.25;;;;;-147.17;100.00;-15172.50;5016398;28;51211;-57
2023/04/21 03:43:37;;;;;;;;;20.25;19.25;;;;;-147.17;100.00;-15420.25;4994821;28;51780;-55
2023/04/21 03:46:03;;;;;;;;;28.50;25.50;;;;;-147.17;100.00;-15420.25;5026008;28;51569;-57
2023/04/21 03:48:28;;;;;;;;;18.50;17.25;;;;;-147.17;100.00;-15668.00;5000025;28;51823;-55
2023/04/21 03:50:54;;;;;;;;;24.75;23.50;;;;;-147.17;100.00;-15668.00;5014668;28;51373;-57
2023/04/21 03:53:19;;;;;;;;;25.50;22.00;;;;;-147.17;100.00;-15420.25;5014068;28;51798;-57
2023/04/21 03:55:47;;;;;;;;;28.25;24.75;;;;;-147.17;100.00;-15668.00;5013993;28;61366;-56
2023/04/21 03:58:14;;;;;;;;;21.75;21.25;;;;;-147.17;100.00;-15668.00;5011842;28;51577;-56
2023/04/21 04:00:39;;;;;;;;;24.25;21.25;;;;;-147.17;100.00;-15915.72;5003059;28;51245;-56
2023/04/21 04:03:06;;;;;;;;;24.75;24.00;;;;;-147.17;100.00;-15915.72;4997506;28;51322;-56
2023/04/21 04:05:32;;;;;;;;;25.50;23.50;;;;;-147.17;100.00;-15915.72;5014152;28;52560;-54
2023/04/21 04:07:57;;;;;;;;;24.00;21.00;;;;;-147.17;100.00;-15915.72;5016527;28;51428;-55
2023/04/21 04:10:23;;;;;;;;;28.00;21.00;;;;;-147.17;100.00;-15917.19;5012744;28;51854;-54
2023/04/21 04:12:48;;;;;;;;;24.25;23.25;;;;;-147.17;100.00;-15917.19;5012691;28;52612;-56
2023/04/21 04:15:14;;;;;;;;;28.50;24.50;;;;;-147.17;100.00;-15917.19;5013136;28;52187;-57
2023/04/21 04:17:39;;;;;;;;;20.75;17.00;;;;;-147.17;100.00;-15917.19;5012415;28;51372;-57
2023/04/21 04:20:07;;;;;;;;;20.50;19.25;;;;;-147.17;100.00;-15917.19;5013548;28;51367;-57
2023/04/21 04:22:33;;;;;;;;;30.00;25.50;;;;;-147.17;100.00;-15917.19;5011349;28;51266;-57
2023/04/21 04:25:00;;;;;;;;;22.75;20.75;;;;;-147.17;100.00;-15917.19;5014297;28;51794;-56
2023/04/21 04:27:26;;;;;;;;;25.00;21.25;;;;;-147.17;100.00;-15917.19;5012537;28;51459;-57
2023/04/21 04:29:51;;;;;;;;;25.00;23.00;;;;;-147.17;100.00;-15917.19;5021707;28;51642;-57
2023/04/21 04:32:17;;;;;;;;;24.75;22.75;;;;;-147.17;100.00;-15917.19;4995823;28;52699;-57
2023/04/21 04:34:43;;;;;;;;;25.00;23.00;;;;;-147.17;100.00;-15917.19;5013917;28;53997;-58
2023/04/21 04:37:10;;;;;;;;;30.50;26.50;;;;;-147.17;100.00;-15917.19;5014863;28;51276;-56
2023/04/21 04:39:36;;;;;;;;;23.00;21.25;;;;;-147.17;100.00;-15917.19;5014574;28;52793;-56
2023/04/21 04:42:02;;;;;;;;;22.25;20.00;;;;;-147.17;100.00;-15917.19;4996152;28;51208;-57
2023/04/21 04:44:28;;;;;;;;;21.25;20.25;;;;;-147.17;100.00;-15917.19;5020005;28;51248;-55
2023/04/21 04:46:54;;;;;;;;;20.75;20.50;;;;;-147.17;100.00;-15917.19;5016834;28;51379;-56
2023/04/21 04:49:19;;;;;;;;;23.50;23.00;;;;;-147.17;100.00;-15917.19;4999078;28;51314;-56
2023/04/21 04:51:45;;;;;;;;;26.00;24.25;;;;;-147.17;100.00;-15917.19;5014095;28;52738;-56
2023/04/21 04:54:10;;;;;;;;;28.00;25.25;;;;;-147.17;100.00;-15917.19;5014060;28;53914;-56
2023/04/21 04:56:36;;;;;;;;;26.00;25.25;;;;;-147.17;100.00;-15917.19;5018553;28;52481;-56
2023/04/21 04:59:02;;;;;;;;;28.50;25.75;;;;;-147.17;100.00;-15917.19;5024492;28;51077;-56
2023/04/21 05:01:29;;;;;;;;;24.25;23.75;;;;;-147.17;100.00;-15917.19;5030698;28;51266;-57
2023/04/21 05:03:55;;;;;;;;;26.50;25.75;;;;;-147.17;100.00;-15917.19;5034501;28;51148;-57
2023/04/21 05:06:21;;;;;;;;;29.50;26.50;;;;;-147.17;100.00;-15917.19;5035357;28;50904;-57
2023/04/21 05:08:46;;;;;;;;;28.50;26.25;;;;;-147.17;100.00;-15917.19;5024576;28;51072;-57
2023/04/21 05:11:12;;;;;;;;;29.00;23.25;;;;;-147.17;100.00;-15917.19;5017587;28;51331;-57
2023/04/21 05:13:37;;;;;;;;;25.25;24.25;;;;;-147.17;100.00;-15917.19;5030904;28;51559;-58
2023/04/21 05:16:03;;;;;;;;;31.00;26.50;;;;;-147.17;100.00;-15917.19;5018508;28;51436;-56
2023/04/21 05:18:28;;;;;;;;;35.75;32.50;;;;;-147.17;100.00;-15917.19;5005699;28;51037;-56
2023/04/21 05:20:54;;;;;;;;;33.50;29.25;;;;;-147.17;100.00;-15917.19;5028085;28;53268;-57
2023/04/21 05:23:19;;;;;;;;;30.50;30.25;;;;;-147.17;100.00;-15917.19;5016840;28;51842;-55
2023/04/21 05:25:45;;;;;;;;;30.00;25.25;;;;;-147.17;100.00;-15917.19;5027146;28;51186;-55
2023/04/21 05:28:11;;;;;;;;;32.75;27.00;;;;;-147.17;100.00;-15917.19;5018351;28;51103;-58
2023/04/21 05:30:36;;;;;;;;;27.25;25.25;;;;;-147.17;100.00;-15917.19;5025427;28;50995;-56
2023/04/21 05:33:01;;;;;;;;;31.00;26.00;;;;;-147.17;100.00;-15917.19;5030851;28;52203;-57
2023/04/21 05:35:29;;;;;;;;;22.50;21.25;;;;;-147.17;100.00;-15917.19;5027751;28;51259;-55
2023/04/21 05:37:55;;;;;;;;;29.50;29.25;;;;;-147.17;100.00;-15917.19;5032683;28;50974;-56
2023/04/21 05:40:20;;;;;;;;;33.25;31.75;;;;;-147.17;100.00;-15917.19;5018799;28;51692;-56
2023/04/21 05:42:46;;;;;;;;;33.50;32.50;;;;;-147.17;100.00;-15917.19;5026099;28;51091;-56
2023/04/21 05:45:11;;;;;;;;;33.00;30.25;;;;;-147.17;100.00;-15917.19;5029921;28;51089;-55
2023/04/21 05:47:39;;;;;;;;;31.25;29.00;;;;;-147.17;100.00;-15917.19;5021685;28;50949;-57
2023/04/21 05:50:06;;;;;;;;;25.00;23.50;;;;;-147.17;100.00;-15917.19;5016804;28;51365;-56
2023/04/21 05:52:33;;;;;;;;;21.00;19.75;;;;;-147.17;100.00;-15917.19;5012075;28;52799;-57
2023/04/21 05:54:59;;;;;;;;;28.00;26.50;;;;;-147.17;100.00;-15917.19;5018643;28;51381;-58
2023/04/21 05:57:24;;;;;;;;;25.75;21.75;;;;;-147.17;100.00;-15917.19;5030156;28;51014;-57
2023/04/21 05:59:50;;;;;;;;;29.50;26.00;;;;;-147.17;100.00;-15917.19;5024674;28;51191;-57
2023/04/21 06:02:15;;;;;;;;;24.00;22.00;;;;;-147.17;100.00;-15917.19;5016851;28;60298;-56
2023/04/21 06:04:41;;;;;;;;;30.00;29.00;;;;;-147.17;100.00;-15917.19;5028428;28;51071;-56
2023/04/21 06:07:07;;;;;;;;;25.00;25.00;;;;;-147.17;100.00;-15917.19;5031947;28;50987;-57
2023/04/21 06:09:34;;;;;;;;;27.25;26.25;;;;;-147.17;100.00;-15917.19;5026818;28;50995;-56
2023/04/21 06:11:59;;;;;;;;;32.25;28.25;;;;;-147.17;100.00;-15917.19;5024344;28;53808;-57
2023/04/21 06:14:24;;;;;;;;;32.25;28.75;;;;;-147.17;100.00;-15917.19;5013700;28;51062;-56
2023/04/21 06:16:50;;;;;;;;;33.75;32.00;;;;;-147.17;100.00;-15917.19;5013996;28;51012;-56
2023/04/21 06:19:15;;;;;;;;;20.25;19.00;;;;;-147.17;100.00;-15917.19;5033308;28;51189;-57
2023/04/21 06:21:41;;;;;;;;;38.25;32.75;;;;;-147.17;100.00;-15917.19;5028485;28;52100;-57
2023/04/21 06:24:06;;;;;;;;;34.00;29.75;;;;;-147.17;100.00;-15917.19;5023251;28;51469;-57
2023/04/21 06:26:32;;;;;;;;;30.75;26.25;;;;;-147.17;100.00;-15917.19;5007446;28;51232;-56
2023/04/21 06:28:57;;;;;;;;;33.00;29.25;;;;;-147.17;100.00;-15917.19;4997263;28;51181;-56
2023/04/21 06:31:26;;;;;;;;;31.00;29.75;;;;;-147.17;100.00;-15917.19;5032353;28;52359;-56
2023/04/21 06:33:52;;;;;;;;;28.25;25.75;;;;;-147.17;100.00;-15915.72;5026044;28;51066;-57
2023/04/21 06:36:27;;;;;;;;;26.50;24.50;;;;;-147.17;100.00;-15172.50;5013030;28;51026;-57
2023/04/21 06:38:52;;;;;;;;;40.00;27.75;;;;;-147.17;100.00;-15420.25;5019028;28;51030;-56
2023/04/21 06:41:18;;;;;;;;;35.00;30.75;;;;;-147.17;100.00;-15668.00;5024781;28;56275;-56
2023/04/21 06:43:44;;;;;;;;;33.75;30.00;;;;;-147.17;100.00;-15917.19;5010633;28;51086;-56
2023/04/21 06:46:09;;;;;;;;;30.75;29.00;;;;;-147.17;100.00;-15917.19;5014652;28;51077;-57
2023/04/21 06:48:35;;;;;;;;;29.25;28.00;;;;;-147.17;100.00;-15172.50;5032263;28;51028;-57
2023/04/21 06:51:01;;;;;;;;;30.00;27.75;;;;;-147.17;100.00;-12694.06;5007422;28;52725;-56
2023/04/21 06:53:26;;;;;;;;;22.25;21.25;;;;;-147.17;100.00;-10214.00;5023819;28;51156;-56
2023/04/21 06:55:52;;;;;;;;;33.50;30.00;;;;;-147.17;100.00;-6739.25;5025365;28;51110;-58
2023/04/21 06:58:17;;;;;;;;;32.00;31.25;;;;;-147.17;100.00;-2515.66;5032605;28;51136;-58
2023/04/21 07:00:43;;;;;;;;;28.00;27.50;;;;;-147.17;100.00;-1521.19;5030828;28;51714;-57
2023/04/21 07:03:08;;;;;;;;;29.50;28.00;;;;;-147.17;100.00;-277.75;5023813;28;51148;-58
2023/04/21 07:05:34;;;;;;;;;34.25;31.50;;;;;-147.17;100.00;219.72;5024454;28;51101;-57
2023/04/21 07:08:00;;;;;;;;;33.75;31.00;;;;;-147.17;100.00;-526.47;4986736;28;51192;-58
2023/04/21 07:10:26;;;;;;;;;24.50;23.00;;;;;-147.17;100.00;219.72;5024006;28;51931;-56
2023/04/21 07:12:52;;;;;;;;;27.00;26.50;;;;;-147.17;100.00;1712.56;5025942;28;51152;-57
2023/04/21 07:15:20;;;;;;;;;39.50;36.25;;;;;-147.17;100.00;2459.22;5023331;28;51466;-57
2023/04/21 07:17:45;;;;;;;;;30.75;29.25;;;;;-147.17;100.00;3454.97;5030702;28;51195;-63
2023/04/21 07:20:11;;;;;;;;;29.75;29.00;;;;;-147.17;100.00;4201.94;5030754;28;52997;-57
2023/04/21 07:22:37;;;;;;;;;28.00;25.75;;;;;-147.17;100.00;4450.97;5023367;28;51241;-57
2023/04/21 07:25:06;;;;;;;;;31.75;27.75;;;;;-147.17;100.00;4949.06;5024574;28;51017;-58
2023/04/21 07:27:32;;;;;;;;;28.00;26.25;;;;;-147.17;100.00;4700.00;4984404;28;51332;-58
2023/04/21 07:29:58;;;;;;;;;27.50;25.50;;;;;-147.17;100.00;4450.97;5024166;28;52407;-57
2023/04/21 07:32:23;;;;;;;;;28.75;26.00;;;;;-147.17;100.00;3206.00;5031242;28;51184;-58
2023/04/21 07:34:49;;;;;;;;;25.75;23.25;;;;;-147.17;100.00;717.28;5016074;28;51034;-58
2023/04/21 07:37:15;;;;;;;;;24.00;24.00;;;;;-147.17;100.00;219.72;5015525;28;51221;-59
2023/04/21 07:39:43;;;;;;;;;26.50;24.25;;;;;-147.17;100.00;5696.34;5029519;28;52185;-58
2023/04/21 07:42:09;;;;;;;;;27.75;27.00;;;;;-147.17;100.00;10432.38;5014709;28;51080;-59
2023/04/21 07:44:35;;;;;;;;;19.00;19.00;;;;;-147.17;100.00;17172.50;5025607;28;51147;-59
2023/04/21 07:47:01;;;;;;;;;23.25;22.50;;;;;-147.17;100.00;20421.94;5029901;28;51387;-59
2023/04/21 07:49:26;;;;;;;;;25.25;25.00;;;;;-147.17;100.00;25176.00;5034222;28;50989;-59
2023/04/21 07:51:51;;;;;;;;;20.50;19.75;;;;;-147.17;100.00;32929.34;5035345;28;51234;-59
2023/04/21 07:54:17;;;;;;;;;21.50;20.50;;;;;-147.17;100.00;36370.44;5029757;28;51011;-59
2023/04/21 07:56:42;;;;;;;;;24.25;23.75;;;;;-147.17;100.00;40489.94;5024222;28;51391;-58
2023/04/21 07:59:07;;;;;;;;;24.50;22.75;;;;;-147.17;100.00;40711.84;5010773;28;51140;-59
2023/04/21 08:01:33;;;;;;;;;17.75;17.75;;;;;-147.17;100.00;41739.00;5011942;28;51018;-59
2023/04/21 08:03:58;;;;;;;;;20.50;20.00;;;;;-147.17;100.00;42676.09;5027192;28;50978;-58
2023/04/21 08:06:24;;;;;;;;;17.00;16.75;;;;;-147.17;100.00;43951.41;5018008;28;51637;-57
2023/04/21 08:08:49;;;;;;;;;20.50;18.50;;;;;-147.17;100.00;44474.22;5027043;28;51969;-58
2023/04/21 08:11:15;;;;;;;;;25.50;23.50;;;;;-147.17;100.00;45217.28;5020456;28;51101;-59
2023/04/21 08:13:40;;;;;;;;;22.50;22.50;;;;;-147.17;100.00;45638.03;4992773;28;51022;-58
2023/04/21 08:16:06;;;;;;;;;23.00;22.00;;;;;-147.17;100.00;45986.06;5016427;28;51151;-58
2023/04/21 08:18:31;;;;;;;;;23.75;21.25;;;;;-147.17;100.00;45248.75;5012566;28;52201;-58
2023/04/21 08:20:56;;;;;;;;;19.50;19.50;;;;;-147.17;100.00;44515.50;5030275;28;51280;-58
2023/04/21 08:23:22;;;;;;;;;27.25;25.00;;;;;-147.17;100.00;44423.13;5013168;28;51084;-59
2023/04/21 08:25:47;;;;;;;;;17.25;16.25;;;;;-147.17;100.00;44142.03;5030990;28;51123;-58
2023/04/21 08:28:14;;;;;;;;;22.25;22.25;;;;;-147.17;100.00;44592.16;5014596;28;51191;-57
2023/04/21 08:30:42;;;;;;;;;17.50;16.50;;;;;-147.17;100.00;44458.50;5012245;28;51164;-59
2023/04/21 08:33:12;;;;;;;;;24.25;22.50;;;;;-147.17;100.00;44454.56;5014980;28;51157;-58
2023/04/21 08:35:37;;;;;;;;;24.50;24.00;;;;;-147.17;100.00;44753.34;5014519;28;51239;-58
2023/04/21 08:38:07;;;;;;;;;24.50;23.50;;;;;-147.17;100.00;45240.88;5013505;28;51161;-58
2023/04/21 08:40:37;;;;;;;;;24.50;23.25;;;;;-147.17;100.00;46294.81;4996702;28;50965;-57
2023/04/21 08:43:07;;;;;;;;;21.75;19.75;;;;;-147.17;100.00;46609.47;5019922;28;51070;-59
2023/04/21 08:45:34;;;;;;;;;11.50;11.50;;;;;-147.17;100.00;46436.41;5016478;28;51337;-59
2023/04/21 08:48:01;;;;;;;;;29.25;26.00;;;;;-147.17;100.00;46149.28;5010923;28;51033;-58
2023/04/21 08:50:33;;;;;;;;;26.50;23.75;;;;;-147.17;100.00;45862.19;5014423;28;51218;-58
2023/04/21 08:52:58;;;;;;;;;26.25;25.25;;;;;-147.17;100.00;45655.75;5014706;28;50951;-59
2023/04/21 08:55:30;;;;;;;;;24.25;23.50;;;;;-147.17;100.00;45691.13;5027506;28;50951;-58
2023/04/21 08:58:02;;;;;;;;;23.25;23.25;;;;;-147.17;100.00;45598.72;5009083;28;52230;-60
2023/04/21 09:00:28;;;;;;;;;21.75;20.75;;;;;-147.17;100.00;45276.28;4997455;28;51137;-59
2023/04/21 09:02:56;;;;;;;;;21.25;20.25;;;;;-147.17;100.00;45700.97;4996797;28;51126;-59
2023/04/21 09:05:26;;;;;;;;;26.50;24.00;;;;;-147.17;100.00;46180.75;5014752;28;51080;-57
2023/04/21 09:08:06;;;;;;;;;26.75;23.75;;;;;-147.17;100.00;46688.13;5034935;28;51996;-59
2023/04/21 09:10:48;;;;;;;;;21.25;21.25;;;;;-147.17;100.00;47280.16;5035452;28;50946;-58
2023/04/21 09:13:15;;;;;;;;;20.50;20.00;;;;;-147.17;100.00;47600.81;4995351;28;51206;-59
2023/04/21 09:15:48;;;;;;;;;22.75;22.50;;;;;-147.17;100.00;47787.69;5029899;28;51406;-58
2023/04/21 09:18:19;;;;;;;;;26.00;25.00;;;;;-147.17;100.00;47943.09;5034432;28;51214;-57
2023/04/21 09:20:52;;;;;;;;;21.50;20.50;;;;;-147.17;100.00;48088.69;5006751;28;51113;-58
2023/04/21 09:23:20;;;;;;;;;25.00;23.25;;;;;-147.17;100.00;48246.09;5025396;28;51178;-58
2023/04/21 09:25:45;;;;;;;;;15.25;14.75;;;;;-147.17;100.00;48499.91;5033144;28;50940;-58
2023/04/21 09:28:12;;;;;;;;;24.25;23.75;;;;;-147.17;100.00;48730.13;5033048;28;50947;-58
2023/04/21 09:30:40;;;;;;;;;24.50;24.25;;;;;-147.17;100.00;48556.97;5033329;28;51214;-59
2023/04/21 09:33:06;;;;;;;;;23.25;22.25;;;;;-147.17;100.00;48505.81;5015208;28;51242;-59
2023/04/21 09:35:34;;;;;;;;;24.50;24.00;;;;;-147.17;100.00;48678.97;5015350;28;51032;-58
2023/04/21 09:38:01;;;;;;;;;22.00;21.75;;;;;-147.17;100.00;48749.81;5014788;28;53149;-59
2023/04/21 09:40:28;;;;;;;;;24.50;22.75;;;;;-147.17;100.00;48677.00;5033085;28;50961;-58
2023/04/21 09:42:54;;;;;;;;;19.00;19.00;;;;;-147.17;100.00;48743.91;5032187;28;51340;-58
2023/04/21 09:45:19;;;;;;;;;22.50;22.00;;;;;-147.17;100.00;48755.72;5022920;28;51112;-57
2023/04/21 09:47:50;;;;;;;;;21.50;20.50;;;;;-147.17;100.00;48781.28;5013811;28;51038;-58
2023/04/21 09:50:18;;;;;;;;;27.00;26.00;;;;;-147.17;100.00;48848.19;5012922;28;50949;-58
2023/04/21 09:52:48;;;;;;;;;21.00;19.00;;;;;-147.17;100.00;48978.06;5012777;28;50995;-58
2023/04/21 09:55:21;;;;;;;;;20.50;19.00;;;;;-147.17;100.00;49078.44;5022833;28;51260;-58
2023/04/21 09:57:51;;;;;;;;;25.00;23.50;;;;;-147.17;100.00;49060.72;4998411;28;52469;-58
2023/04/21 10:00:21;;;;;;;;;23.00;20.50;;;;;-147.17;100.00;48922.97;5015454;28;51310;-58
2023/04/21 10:02:48;;;;;;;;;19.75;18.25;;;;;-147.17;100.00;48800.97;5033129;28;50996;-58
2023/04/21 10:05:20;;;;;;;;;23.75;21.25;;;;;-147.17;100.00;48722.25;5033223;28;50938;-60
2023/04/21 10:07:46;;;;;;;;;19.00;18.25;;;;;-147.17;100.00;48403.50;5033083;28;51134;-58
2023/04/21 10:10:36;;;;;;;;;19.50;19.00;;;;;-147.17;100.00;48458.59;5015245;28;51025;-60
2023/04/21 10:13:02;;;;;;;;;21.25;20.50;;;;;-147.17;100.00;48499.91;5033023;28;50966;-58
2023/04/21 10:15:32;;;;;;;;;20.50;20.25;;;;;-147.17;100.00;48594.34;5033951;28;51204;-59
2023/04/21 10:18:17;;;;;;;;;23.00;22.50;;;;;-147.17;100.00;48600.25;5032251;28;52105;-59
2023/04/21 10:21:06;;;;;;;;;23.75;20.00;;;;;-147.17;100.00;48675.03;5013085;28;51281;-59
2023/04/21 10:23:44;;;;;;;;;20.00;19.50;;;;;-147.17;100.00;48651.41;5012065;28;51101;-59
2023/04/21 10:26:19;;;;;;;;;22.00;22.00;;;;;-147.17;100.00;48596.31;5012563;28;50991;-58
2023/04/21 10:28:52;;;;;;;;;26.50;23.25;;;;;-147.17;100.00;48454.66;5011602;28;51842;-58
2023/04/21 10:31:20;;;;;;;;;19.25;19.25;;;;;-147.17;100.00;48328.72;4994392;28;51177;-58
2023/04/21 10:34:07;;;;;;;;;21.25;20.25;;;;;-147.17;100.00;48204.78;5012013;28;51146;-57
2023/04/21 10:36:52;;;;;;;;;22.75;20.75;;;;;-147.17;100.00;48076.91;5012016;28;50891;-59
2023/04/21 10:39:34;;;;;;;;;22.75;22.50;;;;;-147.17;100.00;48096.56;4998019;28;51536;-59
2023/04/21 10:42:12;;;;;;;;;23.50;22.75;;;;;-147.17;100.00;48104.44;5020097;28;51013;-59
2023/04/21 10:44:56;;;;;;;;;22.00;20.50;;;;;-147.17;100.00;48230.34;5031521;28;51200;-58
2023/04/21 10:47:35;;;;;;;;;25.00;24.50;;;;;-147.17;100.00;48080.81;5032542;28;51399;-57
2023/04/21 10:50:16;;;;;;;;;20.50;18.00;;;;;-147.17;100.00;48137.88;5021960;28;51900;-58